createdAt,value
2023-02-24T00:02:23.319Z,20.73
2023-02-24T00:05:20.432Z,18.93
2023-02-24T00:19:29.044Z,18.07
2023-02-24T00:22:40.125Z,19.10
2023-02-24T00:26:06.907Z,18.00
2023-02-24T00:28:52.850Z,18.70
2023-02-24T00:35:32.579Z,16.73
2023-02-24T00:38:11.769Z,16.63
2023-02-24T00:40:59.655Z,15.80
2023-02-24T00:44:11.503Z,14.30
2023-02-24T00:51:36.686Z,14.37
2023-02-24T00:53:56.426Z,12.53
2023-02-24T00:56:48.497Z,9.97
2023-02-24T00:59:42.973Z,10.33
2023-02-24T01:02:26.998Z,9.20
2023-02-24T01:05:16.055Z,9.60
2023-02-24T01:08:01.433Z,9.50
2023-02-24T01:13:55.834Z,7.77
2023-02-24T01:16:42.752Z,7.73
2023-02-24T01:19:35.207Z,7.13
2023-02-24T01:22:30.550Z,7.80
2023-02-24T01:25:07.216Z,6.90
2023-02-24T01:28:15.039Z,6.40
2023-02-24T01:30:55.685Z,6.03
2023-02-24T01:33:51.826Z,5.43
2023-02-24T01:37:20.582Z,6.80
2023-02-24T01:41:09.739Z,5.27
2023-02-24T01:44:37.610Z,5.90
2023-02-24T01:47:37.140Z,4.60
2023-02-24T01:51:25.199Z,3.53
2023-02-24T02:09:30.740Z,2.80
2023-02-24T02:16:56.710Z,2.90
2023-02-24T02:28:46.594Z,3.63
2023-02-24T02:32:39.174Z,2.50
2023-02-24T02:40:43.214Z,3.77
2023-02-24T02:44:30.866Z,2.60
2023-02-24T02:48:45.250Z,2.57
2023-02-24T02:50:15.364Z,2.30
2023-02-24T02:53:57.466Z,2.40
2023-02-24T03:03:26.947Z,2.50
2023-02-24T03:07:29.061Z,1.97
2023-02-24T03:19:43.051Z,3.00
2023-02-24T03:31:00.445Z,2.50
2023-02-24T03:35:08.612Z,1.60
2023-02-24T03:39:17.340Z,2.23
2023-02-24T03:42:23.151Z,2.03
2023-02-24T03:48:46.032Z,2.50
2023-02-24T04:12:07.183Z,10.50
2023-02-24T04:22:08.511Z,2.90
2023-02-24T04:24:46.499Z,3.50
2023-02-24T04:39:38.844Z,2.80
2023-02-24T04:43:26.421Z,2.70
2023-02-24T04:46:42.494Z,2.90
2023-02-24T04:54:04.016Z,3.33
2023-02-24T05:00:55.844Z,2.30
2023-02-24T05:04:23.433Z,3.27
2023-02-24T05:23:07.530Z,1.73
2023-02-24T05:26:29.883Z,2.80
2023-02-24T05:30:10.058Z,1.70
2023-02-24T05:37:02.586Z,1.90
2023-02-24T05:39:54.518Z,1.97
2023-02-24T05:42:46.549Z,1.40
2023-02-24T05:48:24.693Z,1.67
2023-02-24T05:51:12.971Z,1.53
2023-02-24T05:53:49.291Z,1.77
2023-02-24T05:56:48.437Z,1.20
2023-02-24T05:59:36.643Z,1.20
2023-02-24T06:03:21.042Z,1.93
2023-02-24T06:11:20.998Z,2.70
2023-02-24T06:14:35.743Z,2.27
2023-02-24T06:17:33.417Z,2.80
2023-02-24T06:24:57.329Z,3.23
2023-02-24T06:27:44.218Z,4.40
2023-02-24T06:30:22.571Z,2.30
2023-02-24T06:39:23.174Z,1.90
2023-02-24T06:42:37.305Z,1.40
2023-02-24T06:45:20.798Z,1.63
2023-02-24T06:48:52.126Z,1.60
2023-02-24T06:54:53.802Z,1.73
2023-02-24T07:02:28.154Z,1.50
2023-02-24T07:08:29.014Z,2.10
2023-02-24T07:08:53.801Z,2.07
2023-02-24T07:12:47.612Z,1.93
2023-02-24T07:16:04.364Z,2.27
2023-02-24T07:18:57.936Z,1.67
2023-02-24T07:25:04.465Z,1.67
2023-02-24T07:26:13.374Z,1.97
2023-02-24T07:27:41.665Z,1.30
2023-02-24T07:30:25.786Z,1.60
2023-02-24T07:32:59.085Z,2.57
2023-02-24T07:35:37.240Z,1.87
2023-02-24T07:38:25.338Z,1.80
2023-02-24T07:41:31.547Z,2.20
2023-02-24T07:44:02.403Z,1.70
2023-02-24T07:46:38.988Z,1.50
2023-02-24T07:49:20.669Z,2.70
2023-02-24T07:52:03.231Z,1.67
2023-02-24T07:54:44.682Z,4.60
2023-02-24T07:57:19.577Z,4.70
2023-02-24T07:59:57.281Z,2.40
2023-02-24T08:02:33.838Z,1.40
2023-02-24T08:05:10.822Z,1.80
2023-02-24T08:07:40.840Z,1.80
2023-02-24T08:10:16.845Z,1.67
2023-02-24T08:16:08.656Z,1.97
2023-02-24T08:18:50.992Z,1.87
2023-02-24T08:21:29.632Z,1.40
2023-02-24T08:24:20.869Z,1.50
2023-02-24T08:27:10.380Z,1.60
2023-02-24T08:30:03.504Z,2.60
2023-02-24T08:32:48.854Z,1.80
2023-02-24T08:38:32.579Z,1.40
2023-02-24T08:42:01.626Z,4.07
2023-02-24T08:44:29.392Z,2.70
2023-02-24T08:47:14.547Z,2.30
2023-02-24T08:50:03.412Z,7.33
2023-02-24T08:52:54.199Z,2.80
2023-02-24T08:56:24.821Z,2.20
2023-02-24T08:59:30.897Z,2.40
2023-02-24T09:02:24.349Z,2.43
2023-02-24T09:05:25.821Z,2.67
2023-02-24T09:08:24.645Z,2.43
2023-02-24T09:15:23.721Z,2.60
2023-02-24T09:19:23.994Z,2.37
2023-02-24T09:26:57.512Z,1.60
2023-02-24T09:29:54.810Z,2.57
2023-02-24T09:32:40.904Z,1.70
2023-02-24T09:35:42.046Z,2.27
2023-02-24T09:38:55.774Z,2.27
2023-02-24T09:49:06.967Z,1.70
2023-02-24T09:52:12.345Z,2.43
2023-02-24T09:55:22.013Z,2.10
2023-02-24T10:03:09.243Z,1.43
2023-02-24T10:06:40.891Z,1.30
2023-02-24T10:17:51.087Z,1.57
2023-02-24T10:20:48.138Z,1.73
2023-02-24T10:23:54.750Z,7.13
2023-02-24T10:27:29.390Z,3.60
2023-02-24T10:30:31.175Z,1.37
2023-02-24T10:33:44.228Z,1.60
2023-02-24T10:36:53.610Z,1.13
2023-02-24T10:39:44.839Z,1.30
2023-02-24T10:46:07.285Z,1.47
2023-02-24T10:48:42.423Z,1.60
2023-02-24T10:51:42.687Z,2.33
2023-02-24T10:54:36.646Z,0.80
2023-02-24T10:57:22.675Z,1.57
2023-02-24T11:01:21.460Z,1.80
2023-02-24T11:04:33.809Z,1.50
2023-02-24T11:07:26.002Z,1.60
2023-02-24T11:10:53.915Z,1.47
2023-02-24T11:13:44.070Z,2.10
2023-02-24T11:16:42.275Z,1.63
2023-02-24T11:19:24.282Z,1.50
2023-02-24T11:22:03.040Z,1.60
2023-02-24T11:24:34.780Z,1.57
2023-02-24T11:27:31.784Z,1.90
2023-02-24T11:30:47.347Z,1.97
2023-02-24T11:34:03.701Z,1.70
2023-02-24T11:36:41.474Z,1.97
2023-02-24T11:39:54.053Z,8.50
2023-02-24T11:42:54.059Z,4.03
2023-02-24T11:45:51.384Z,1.53
2023-02-24T11:48:51.817Z,2.00
2023-02-24T11:51:42.930Z,1.87
2023-02-24T11:54:16.180Z,2.20
2023-02-24T11:57:04.380Z,2.27
2023-02-24T11:59:57.918Z,1.67
2023-02-24T12:02:53.675Z,1.87
2023-02-24T12:09:30.752Z,1.70
2023-02-24T12:12:39.221Z,2.27
2023-02-24T12:15:54.380Z,1.50
2023-02-24T12:18:53.417Z,1.67
2023-02-24T12:22:19.299Z,1.83
2023-02-24T12:29:17.852Z,1.83
2023-02-24T12:36:29.278Z,1.50
2023-02-24T12:48:19.834Z,1.30
2023-02-24T12:52:29.516Z,1.20
2023-02-24T12:55:35.634Z,1.43
2023-02-24T12:58:35.137Z,1.27
2023-02-24T13:01:51.530Z,1.33
2023-02-24T13:04:51.591Z,1.77
2023-02-24T13:08:00.262Z,1.97
2023-02-24T13:11:04.460Z,1.50
2023-02-24T13:14:13.711Z,1.43
2023-02-24T13:16:42.000Z,1.63
2023-02-24T13:19:32.958Z,2.00
2023-02-24T13:22:31.854Z,2.23
2023-02-24T13:25:27.062Z,1.47
2023-02-24T13:28:14.625Z,2.40
2023-02-24T13:31:05.983Z,1.90
2023-02-24T13:33:48.102Z,1.90
2023-02-24T13:36:22.628Z,2.00
2023-02-24T13:39:38.979Z,1.83
2023-02-24T13:42:28.376Z,1.50
2023-02-24T13:45:30.396Z,1.40
2023-02-24T13:48:50.152Z,1.87
2023-02-24T13:51:47.739Z,1.90
2023-02-24T13:54:37.472Z,1.70
2023-02-24T13:57:42.738Z,1.73
2023-02-24T14:00:43.091Z,2.03
2023-02-24T14:03:22.442Z,1.90
2023-02-24T14:06:02.267Z,1.60
2023-02-24T14:08:39.458Z,2.67
2023-02-24T14:11:14.671Z,2.07
2023-02-24T14:13:49.015Z,1.60
2023-02-24T14:16:24.040Z,1.97
2023-02-24T14:19:05.035Z,1.90
2023-02-24T14:21:34.938Z,1.77
2023-02-24T14:24:29.629Z,1.43
2023-02-24T14:27:41.200Z,1.70
2023-02-24T14:30:28.179Z,1.60
2023-02-24T14:32:59.544Z,3.60
2023-02-24T14:35:50.930Z,4.90
2023-02-24T14:38:41.191Z,1.43
2023-02-24T14:41:25.030Z,1.73
2023-02-24T14:44:19.491Z,1.70
2023-02-24T14:47:01.756Z,1.50
2023-02-24T14:49:34.614Z,1.80
2023-02-24T14:52:15.276Z,1.40
2023-02-24T14:55:13.051Z,1.70
2023-02-24T14:58:08.674Z,1.20
2023-02-24T15:00:42.160Z,1.93
2023-02-24T15:03:49.821Z,1.83
2023-02-24T15:06:41.714Z,1.70
2023-02-24T15:09:36.880Z,1.70
2023-02-24T15:12:26.960Z,2.00
2023-02-24T15:15:13.899Z,1.77
2023-02-24T15:17:47.983Z,1.73
2023-02-24T15:20:48.000Z,1.80
2023-02-24T15:23:32.859Z,1.77
2023-02-24T15:26:29.752Z,1.70
2023-02-24T15:29:22.440Z,1.30
2023-02-24T15:31:56.782Z,1.17
2023-02-24T15:34:39.081Z,1.43
2023-02-24T15:37:24.441Z,3.97
2023-02-24T15:40:24.374Z,2.20
2023-02-24T15:43:00.566Z,1.40
2023-02-24T15:45:37.794Z,1.73
2023-02-24T15:48:22.015Z,1.60
2023-02-24T15:50:52.794Z,1.60
2023-02-24T15:53:20.088Z,1.90
2023-02-24T15:55:50.384Z,1.60
2023-02-24T15:58:23.572Z,1.57
2023-02-24T16:00:52.806Z,2.30
2023-02-24T16:03:23.701Z,3.17
2023-02-24T16:05:51.749Z,7.77
2023-02-24T16:08:20.527Z,2.00
2023-02-24T16:10:50.746Z,2.33
2023-02-24T16:13:28.183Z,2.40
2023-02-24T16:15:58.472Z,2.53
2023-02-24T16:18:26.380Z,2.60
2023-02-24T16:20:57.443Z,2.87
2023-02-24T16:23:26.671Z,2.30
2023-02-24T16:25:59.536Z,2.00
2023-02-24T16:28:30.914Z,2.60
2023-02-24T16:31:37.102Z,2.80
2023-02-24T16:34:12.244Z,2.30
2023-02-24T16:36:47.605Z,3.00
2023-02-24T16:39:15.675Z,3.30
2023-02-24T16:41:43.510Z,3.07
2023-02-24T16:44:10.694Z,3.03
2023-02-24T16:46:41.230Z,3.63
2023-02-24T16:49:14.010Z,2.97
2023-02-24T16:51:40.984Z,3.30
2023-02-24T16:54:08.370Z,4.00
2023-02-24T16:56:35.324Z,3.30
2023-02-24T16:59:03.150Z,4.57
2023-02-24T17:01:30.425Z,4.03
2023-02-24T17:03:57.432Z,5.10
2023-02-24T17:06:25.487Z,10.93
2023-02-24T17:08:52.770Z,8.03
2023-02-24T17:11:21.769Z,4.77
2023-02-24T17:13:48.857Z,4.63
2023-02-24T17:16:15.763Z,4.30
2023-02-24T17:18:42.661Z,4.70
2023-02-24T17:21:14.058Z,5.23
2023-02-24T17:23:42.547Z,4.70
2023-02-24T17:26:15.240Z,6.30
2023-02-24T17:28:42.402Z,5.77
2023-02-24T17:31:09.386Z,5.70
2023-02-24T17:33:36.459Z,7.10
2023-02-24T17:36:03.528Z,6.20
2023-02-24T17:38:30.461Z,7.10
2023-02-24T17:40:57.718Z,6.17
2023-02-24T17:43:24.713Z,5.83
2023-02-24T17:45:53.006Z,6.37
2023-02-24T17:48:20.533Z,7.60
2023-02-24T17:50:48.368Z,6.97
2023-02-24T17:53:15.453Z,7.13
2023-02-24T17:56:01.034Z,7.17
2023-02-24T17:58:28.696Z,8.80
2023-02-24T18:00:55.625Z,8.20
2023-02-24T18:03:22.605Z,9.13
2023-02-24T18:06:26.251Z,8.90
2023-02-24T18:08:53.127Z,8.87
2023-02-24T18:11:20.992Z,9.80
2023-02-24T18:13:50.885Z,11.60
2023-02-24T18:16:18.085Z,17.70
2023-02-24T18:18:45.172Z,14.47
2023-02-24T18:21:12.499Z,9.87
2023-02-24T18:23:40.406Z,9.93
2023-02-24T18:26:11.285Z,10.47
2023-02-24T18:28:39.368Z,9.80
2023-02-24T18:31:23.578Z,10.90
2023-02-24T18:33:50.701Z,9.50
2023-02-24T18:36:18.387Z,9.70
2023-02-24T18:38:46.191Z,10.37
2023-02-24T18:41:20.163Z,9.70
2023-02-24T18:43:54.447Z,9.53
2023-02-24T18:46:23.330Z,10.27
2023-02-24T18:48:50.946Z,9.50
2023-02-24T18:51:23.582Z,10.40
2023-02-24T18:53:52.728Z,10.00
2023-02-24T18:56:27.806Z,9.60
2023-02-24T18:58:57.765Z,11.50
2023-02-24T19:01:34.523Z,10.30
2023-02-24T19:04:02.297Z,22.10
2023-02-24T19:06:31.307Z,10.57
2023-02-24T19:09:07.491Z,10.33
2023-02-24T19:11:34.553Z,10.83
2023-02-24T19:14:01.577Z,11.00
2023-02-24T19:16:29.126Z,11.47
2023-02-24T19:18:58.311Z,10.60
2023-02-24T19:21:28.327Z,12.00
2023-02-24T19:23:55.439Z,11.07
2023-02-24T19:26:26.516Z,10.67
2023-02-24T19:28:54.469Z,10.93
2023-02-24T19:31:26.249Z,10.80
2023-02-24T19:34:02.436Z,10.00
2023-02-24T19:36:31.474Z,9.87
2023-02-24T19:38:58.515Z,10.13
2023-02-24T19:41:25.960Z,11.03
2023-02-24T19:43:53.162Z,11.33
2023-02-24T19:46:20.614Z,10.97
2023-02-24T19:48:48.487Z,10.93
2023-02-24T19:51:22.821Z,11.30
2023-02-24T19:53:53.927Z,10.50
2023-02-24T19:56:26.802Z,11.30
2023-02-24T19:58:55.001Z,10.47
2023-02-24T20:01:23.245Z,10.10
2023-02-24T20:03:50.583Z,11.73
2023-02-24T20:06:28.865Z,9.60
2023-02-24T20:08:57.421Z,11.20
2023-02-24T20:11:25.003Z,11.23
2023-02-24T20:13:53.323Z,11.50
2023-02-24T20:16:24.904Z,10.67
2023-02-24T20:18:55.341Z,10.93
2023-02-24T20:21:22.582Z,10.70
2023-02-24T20:23:49.574Z,10.63
2023-02-24T20:26:17.331Z,11.23
2023-02-24T20:28:46.842Z,11.20
2023-02-24T20:31:19.294Z,11.53
2023-02-24T20:33:49.061Z,12.03
2023-02-24T20:36:23.603Z,12.20
2023-02-24T20:38:51.923Z,12.00
2023-02-24T20:41:20.492Z,12.60
2023-02-24T20:43:49.581Z,13.10
2023-02-24T20:46:25.249Z,12.70
2023-02-24T20:49:05.380Z,13.40
2023-02-24T20:51:34.132Z,12.60
2023-02-24T20:54:01.375Z,13.80
2023-02-24T20:56:33.116Z,13.17
2023-02-24T20:59:04.888Z,13.27
2023-02-24T21:01:33.488Z,13.00
2023-02-24T21:04:01.734Z,14.43
2023-02-24T21:06:29.773Z,13.57
2023-02-24T21:08:58.046Z,12.53
2023-02-24T21:11:25.861Z,13.07
2023-02-24T21:13:53.308Z,12.00
2023-02-24T21:16:22.021Z,13.83
2023-02-24T21:18:51.481Z,13.30
2023-02-24T21:21:19.774Z,14.77
2023-02-24T21:23:47.555Z,13.90
2023-02-24T21:26:15.285Z,14.50
2023-02-24T21:28:42.299Z,13.27
2023-02-24T21:31:12.875Z,12.70
2023-02-24T21:33:39.924Z,14.40
2023-02-24T21:36:13.559Z,13.20
2023-02-24T21:38:41.311Z,12.90
2023-02-24T21:41:14.752Z,13.57
2023-02-24T21:43:44.156Z,12.20
2023-02-24T21:46:13.477Z,12.60
2023-02-24T21:48:41.764Z,13.70
2023-02-24T21:51:11.945Z,11.17
2023-02-24T21:53:43.448Z,11.83
2023-02-24T21:56:17.529Z,11.30
2023-02-24T21:58:48.188Z,12.50
2023-02-24T22:01:18.986Z,11.97
2023-02-24T22:03:46.363Z,11.53
2023-02-24T22:06:16.787Z,11.83
2023-02-24T22:08:45.324Z,12.50
2023-02-24T22:11:15.860Z,11.60
2023-02-24T22:13:44.483Z,10.50
2023-02-24T22:16:18.188Z,10.93
2023-02-24T22:18:46.680Z,11.10
2023-02-24T22:21:17.746Z,10.83
2023-02-24T22:23:46.877Z,11.20
2023-02-24T22:26:15.319Z,10.27
2023-02-24T22:28:44.668Z,10.23
2023-02-24T22:31:14.623Z,10.20
2023-02-24T22:33:43.399Z,8.87
2023-02-24T22:36:27.926Z,8.70
2023-02-24T22:38:57.610Z,9.50
2023-02-24T22:41:31.634Z,9.33
2023-02-24T22:43:59.720Z,8.60
2023-02-24T22:46:33.733Z,8.90
2023-02-24T22:49:00.989Z,8.67
2023-02-24T22:51:28.417Z,9.77
2023-02-24T22:53:56.247Z,8.50
2023-02-24T22:56:27.244Z,7.40
2023-02-24T22:58:55.075Z,7.57
2023-02-24T23:01:34.993Z,5.73
2023-02-24T23:04:04.859Z,6.70
2023-02-24T23:06:32.853Z,5.83
2023-02-24T23:09:00.986Z,6.47
2023-02-24T23:11:35.050Z,5.30
2023-02-24T23:14:06.038Z,4.93
2023-02-24T23:16:35.404Z,5.03
2023-02-24T23:19:13.055Z,4.10
2023-02-24T23:21:49.788Z,4.60
2023-02-24T23:24:18.569Z,3.67
2023-02-24T23:26:53.999Z,3.80
2023-02-24T23:29:23.097Z,3.90
2023-02-24T23:31:50.609Z,3.73
2023-02-24T23:34:18.106Z,3.80
2023-02-24T23:36:46.899Z,3.10
2023-02-24T23:39:18.224Z,3.47
2023-02-24T23:41:45.532Z,3.30
2023-02-24T23:44:12.742Z,3.87
2023-02-24T23:46:41.698Z,2.97
2023-02-24T23:49:08.906Z,2.77
2023-02-24T23:51:47.460Z,2.20
2023-02-24T23:54:17.956Z,2.60
2023-02-24T23:56:45.367Z,2.97
2023-02-24T23:59:12.324Z,2.60
